sensor_id;sensor_type;location;lat;lon;timestamp;temperature;humidity
23827;DHT22;12094;50.822;4.376;2023-12-28T00:00:53;10.70;99.90
23827;DHT22;12094;50.822;4.376;2023-12-28T00:03:22;10.70;99.90
23827;DHT22;12094;50.822;4.376;2023-12-28T00:05:50;10.70;99.90
23827;DHT22;12094;50.822;4.376;2023-12-28T00:08:18;10.70;99.90
23827;DHT22;12094;50.822;4.376;2023-12-28T00:10:47;10.70;99.90
23827;DHT22;12094;50.822;4.376;2023-12-28T00:13:16;10.70;99.90
23827;DHT22;12094;50.822;4.376;2023-12-28T00:15:45;10.70;99.90
23827;DHT22;12094;50.822;4.376;2023-12-28T00:18:13;10.70;99.90
23827;DHT22;12094;50.822;4.376;2023-12-28T00:23:19;10.70;99.90
23827;DHT22;12094;50.822;4.376;2023-12-28T00:25:50;10.70;99.90
23827;DHT22;12094;50.822;4.376;2023-12-28T00:28:34;10.80;99.90
23827;DHT22;12094;50.822;4.376;2023-12-28T00:34:22;10.90;99.90
23827;DHT22;12094;50.822;4.376;2023-12-28T00:36:52;10.80;99.90
23827;DHT22;12094;50.822;4.376;2023-12-28T00:39:19;10.80;99.90
23827;DHT22;12094;50.822;4.376;2023-12-28T00:41:47;10.80;99.90
23827;DHT22;12094;50.822;4.376;2023-12-28T00:44:15;10.80;99.90
23827;DHT22;12094;50.822;4.376;2023-12-28T00:46:45;10.80;99.90
23827;DHT22;12094;50.822;4.376;2023-12-28T00:49:14;10.80;99.90
23827;DHT22;12094;50.822;4.376;2023-12-28T00:51:41;10.80;99.90
23827;DHT22;12094;50.822;4.376;2023-12-28T00:54:10;10.80;99.90
23827;DHT22;12094;50.822;4.376;2023-12-28T00:56:38;10.80;99.90
23827;DHT22;12094;50.822;4.376;2023-12-28T00:59:06;10.80;99.90
23827;DHT22;12094;50.822;4.376;2023-12-28T01:08:10;10.70;99.90
23827;DHT22;12094;50.822;4.376;2023-12-28T01:14:40;10.70;99.90
23827;DHT22;12094;50.822;4.376;2023-12-28T01:17:07;10.70;99.90
23827;DHT22;12094;50.822;4.376;2023-12-28T01:19:36;10.70;99.90
23827;DHT22;12094;50.822;4.376;2023-12-28T01:22:04;10.70;99.90
23827;DHT22;12094;50.822;4.376;2023-12-28T01:24:31;10.70;99.90
23827;DHT22;12094;50.822;4.376;2023-12-28T01:26:58;10.70;99.90
23827;DHT22;12094;50.822;4.376;2023-12-28T01:29:25;10.70;99.90
23827;DHT22;12094;50.822;4.376;2023-12-28T01:31:54;10.70;99.90
23827;DHT22;12094;50.822;4.376;2023-12-28T01:34:22;10.60;99.90
23827;DHT22;12094;50.822;4.376;2023-12-28T01:39:22;10.70;99.90
23827;DHT22;12094;50.822;4.376;2023-12-28T01:41:50;10.70;99.90
23827;DHT22;12094;50.822;4.376;2023-12-28T01:44:17;10.70;99.90
23827;DHT22;12094;50.822;4.376;2023-12-28T01:46:44;10.70;99.90
23827;DHT22;12094;50.822;4.376;2023-12-28T01:49:13;10.70;99.90
23827;DHT22;12094;50.822;4.376;2023-12-28T01:51:40;10.70;99.90
23827;DHT22;12094;50.822;4.376;2023-12-28T01:54:11;10.80;99.90
23827;DHT22;12094;50.822;4.376;2023-12-28T01:56:38;10.80;99.90
23827;DHT22;12094;50.822;4.376;2023-12-28T01:59:09;10.80;99.90
23827;DHT22;12094;50.822;4.376;2023-12-28T02:01:39;10.80;99.90
23827;DHT22;12094;50.822;4.376;2023-12-28T02:04:07;10.80;99.90
23827;DHT22;12094;50.822;4.376;2023-12-28T02:09:06;10.80;99.90
23827;DHT22;12094;50.822;4.376;2023-12-28T02:11:33;10.80;99.90
23827;DHT22;12094;50.822;4.376;2023-12-28T02:14:01;10.80;99.90
23827;DHT22;12094;50.822;4.376;2023-12-28T02:16:38;10.80;99.90
23827;DHT22;12094;50.822;4.376;2023-12-28T02:19:52;10.80;99.90
23827;DHT22;12094;50.822;4.376;2023-12-28T02:22:01;10.80;99.90
23827;DHT22;12094;50.822;4.376;2023-12-28T02:27:26;10.80;99.90
23827;DHT22;12094;50.822;4.376;2023-12-28T02:29:55;10.90;99.90
23827;DHT22;12094;50.822;4.376;2023-12-28T02:32:30;10.90;99.90
23827;DHT22;12094;50.822;4.376;2023-12-28T02:35:01;10.90;99.90
23827;DHT22;12094;50.822;4.376;2023-12-28T02:37:31;10.90;99.90
23827;DHT22;12094;50.822;4.376;2023-12-28T02:40:00;10.90;99.90
23827;DHT22;12094;50.822;4.376;2023-12-28T02:44:59;10.90;99.90
23827;DHT22;12094;50.822;4.376;2023-12-28T02:47:26;10.90;99.90
23827;DHT22;12094;50.822;4.376;2023-12-28T02:49:53;10.90;99.90
23827;DHT22;12094;50.822;4.376;2023-12-28T02:52:22;10.90;99.90
23827;DHT22;12094;50.822;4.376;2023-12-28T02:54:50;10.90;99.90
23827;DHT22;12094;50.822;4.376;2023-12-28T02:57:18;11.00;99.90
23827;DHT22;12094;50.822;4.376;2023-12-28T02:59:47;10.90;99.90
23827;DHT22;12094;50.822;4.376;2023-12-28T03:02:27;10.90;99.90
23827;DHT22;12094;50.822;4.376;2023-12-28T03:04:55;10.90;99.90
23827;DHT22;12094;50.822;4.376;2023-12-28T03:07:22;10.90;99.90
23827;DHT22;12094;50.822;4.376;2023-12-28T03:09:50;10.90;99.90
23827;DHT22;12094;50.822;4.376;2023-12-28T03:12:18;10.90;99.90
23827;DHT22;12094;50.822;4.376;2023-12-28T03:14:46;10.90;99.90
23827;DHT22;12094;50.822;4.376;2023-12-28T03:17:13;11.00;99.90
23827;DHT22;12094;50.822;4.376;2023-12-28T03:19:40;11.00;99.90
23827;DHT22;12094;50.822;4.376;2023-12-28T03:22:07;11.00;99.90
23827;DHT22;12094;50.822;4.376;2023-12-28T03:24:37;11.00;99.90
23827;DHT22;12094;50.822;4.376;2023-12-28T03:27:04;11.00;99.90
23827;DHT22;12094;50.822;4.376;2023-12-28T03:29:32;11.00;99.90
23827;DHT22;12094;50.822;4.376;2023-12-28T03:32:01;11.00;99.90
23827;DHT22;12094;50.822;4.376;2023-12-28T03:37:05;11.00;99.90
23827;DHT22;12094;50.822;4.376;2023-12-28T03:39:37;11.00;99.90
23827;DHT22;12094;50.822;4.376;2023-12-28T03:42:05;11.00;99.90
23827;DHT22;12094;50.822;4.376;2023-12-28T03:44:36;11.00;99.90
23827;DHT22;12094;50.822;4.376;2023-12-28T03:47:04;11.00;99.90
23827;DHT22;12094;50.822;4.376;2023-12-28T03:49:34;11.00;99.90
23827;DHT22;12094;50.822;4.376;2023-12-28T03:54:34;11.00;99.90
23827;DHT22;12094;50.822;4.376;2023-12-28T03:57:04;11.00;99.90
23827;DHT22;12094;50.822;4.376;2023-12-28T03:59:48;11.00;99.90
23827;DHT22;12094;50.822;4.376;2023-12-28T04:05:20;11.00;99.90
23827;DHT22;12094;50.822;4.376;2023-12-28T04:10:37;11.10;99.90
23827;DHT22;12094;50.822;4.376;2023-12-28T04:15:35;11.00;99.90
23827;DHT22;12094;50.822;4.376;2023-12-28T04:21:07;11.10;99.90
23827;DHT22;12094;50.822;4.376;2023-12-28T04:23:34;11.10;99.90
23827;DHT22;12094;50.822;4.376;2023-12-28T04:26:01;11.00;99.90
23827;DHT22;12094;50.822;4.376;2023-12-28T04:28:28;11.00;99.90
23827;DHT22;12094;50.822;4.376;2023-12-28T04:30:55;11.00;99.90
23827;DHT22;12094;50.822;4.376;2023-12-28T04:33:23;11.00;99.90
23827;DHT22;12094;50.822;4.376;2023-12-28T04:35:52;11.00;99.90
23827;DHT22;12094;50.822;4.376;2023-12-28T04:38:19;11.00;99.90
23827;DHT22;12094;50.822;4.376;2023-12-28T04:40:49;11.00;99.90
23827;DHT22;12094;50.822;4.376;2023-12-28T04:43:16;11.00;99.90
23827;DHT22;12094;50.822;4.376;2023-12-28T04:45:43;11.00;99.90
23827;DHT22;12094;50.822;4.376;2023-12-28T04:48:14;11.00;99.90
23827;DHT22;12094;50.822;4.376;2023-12-28T04:53:11;10.90;99.90
23827;DHT22;12094;50.822;4.376;2023-12-28T04:55:38;10.90;99.90
23827;DHT22;12094;50.822;4.376;2023-12-28T04:58:05;10.80;99.90
23827;DHT22;12094;50.822;4.376;2023-12-28T05:00:32;10.80;99.90
23827;DHT22;12094;50.822;4.376;2023-12-28T05:03:00;10.70;99.90
23827;DHT22;12094;50.822;4.376;2023-12-28T05:05:29;10.70;99.90
23827;DHT22;12094;50.822;4.376;2023-12-28T05:08:00;10.70;99.90
23827;DHT22;12094;50.822;4.376;2023-12-28T05:10:29;10.70;99.90
23827;DHT22;12094;50.822;4.376;2023-12-28T05:12:57;10.70;99.90
23827;DHT22;12094;50.822;4.376;2023-12-28T05:15:30;10.70;99.90
23827;DHT22;12094;50.822;4.376;2023-12-28T05:17:59;10.70;99.90
23827;DHT22;12094;50.822;4.376;2023-12-28T05:20:30;10.60;99.90
23827;DHT22;12094;50.822;4.376;2023-12-28T05:22:59;10.70;99.90
23827;DHT22;12094;50.822;4.376;2023-12-28T05:27:57;10.70;99.90
23827;DHT22;12094;50.822;4.376;2023-12-28T05:30:24;10.70;99.90
23827;DHT22;12094;50.822;4.376;2023-12-28T05:32:52;10.70;99.90
23827;DHT22;12094;50.822;4.376;2023-12-28T05:35:21;10.70;99.90
23827;DHT22;12094;50.822;4.376;2023-12-28T05:37:49;10.70;99.90
23827;DHT22;12094;50.822;4.376;2023-12-28T05:40:18;10.70;99.90
23827;DHT22;12094;50.822;4.376;2023-12-28T05:42:46;10.80;99.90
23827;DHT22;12094;50.822;4.376;2023-12-28T05:45:15;10.80;99.90
23827;DHT22;12094;50.822;4.376;2023-12-28T05:47:43;10.80;99.90
23827;DHT22;12094;50.822;4.376;2023-12-28T05:50:11;10.80;99.90
23827;DHT22;12094;50.822;4.376;2023-12-28T05:52:39;10.80;99.90
23827;DHT22;12094;50.822;4.376;2023-12-28T05:55:09;10.80;99.90
23827;DHT22;12094;50.822;4.376;2023-12-28T05:57:37;10.80;99.90
23827;DHT22;12094;50.822;4.376;2023-12-28T06:00:04;10.80;99.90
23827;DHT22;12094;50.822;4.376;2023-12-28T06:02:38;10.80;99.90
23827;DHT22;12094;50.822;4.376;2023-12-28T06:05:05;10.80;99.90
23827;DHT22;12094;50.822;4.376;2023-12-28T06:07:33;10.80;99.90
23827;DHT22;12094;50.822;4.376;2023-12-28T06:10:01;10.90;99.90
23827;DHT22;12094;50.822;4.376;2023-12-28T06:12:30;10.90;99.90
23827;DHT22;12094;50.822;4.376;2023-12-28T06:14:58;10.80;99.90
23827;DHT22;12094;50.822;4.376;2023-12-28T06:17:26;10.80;99.90
23827;DHT22;12094;50.822;4.376;2023-12-28T06:20:00;10.80;99.90
23827;DHT22;12094;50.822;4.376;2023-12-28T06:22:28;10.70;99.90
23827;DHT22;12094;50.822;4.376;2023-12-28T06:24:55;10.70;99.90
23827;DHT22;12094;50.822;4.376;2023-12-28T06:27:24;10.70;99.90
23827;DHT22;12094;50.822;4.376;2023-12-28T06:29:51;10.70;99.90
23827;DHT22;12094;50.822;4.376;2023-12-28T06:32:18;10.60;99.90
23827;DHT22;12094;50.822;4.376;2023-12-28T06:34:50;10.60;99.90
23827;DHT22;12094;50.822;4.376;2023-12-28T06:37:18;10.60;99.90
23827;DHT22;12094;50.822;4.376;2023-12-28T06:39:46;10.60;99.90
23827;DHT22;12094;50.822;4.376;2023-12-28T06:42:13;10.60;99.90
23827;DHT22;12094;50.822;4.376;2023-12-28T06:44:41;10.50;99.90
23827;DHT22;12094;50.822;4.376;2023-12-28T06:47:09;10.50;99.90
23827;DHT22;12094;50.822;4.376;2023-12-28T06:49:36;10.50;99.90
23827;DHT22;12094;50.822;4.376;2023-12-28T06:52:04;10.50;99.90
23827;DHT22;12094;50.822;4.376;2023-12-28T06:54:32;10.50;99.90
23827;DHT22;12094;50.822;4.376;2023-12-28T06:56:59;10.50;99.90
23827;DHT22;12094;50.822;4.376;2023-12-28T06:59:29;10.40;99.90
23827;DHT22;12094;50.822;4.376;2023-12-28T07:02:00;10.50;99.90
23827;DHT22;12094;50.822;4.376;2023-12-28T07:04:40;10.40;99.90
23827;DHT22;12094;50.822;4.376;2023-12-28T07:07:11;10.40;99.90
23827;DHT22;12094;50.822;4.376;2023-12-28T07:12:32;10.40;99.90
23827;DHT22;12094;50.822;4.376;2023-12-28T07:18:04;10.40;99.90
23827;DHT22;12094;50.822;4.376;2023-12-28T07:20:31;10.40;99.90
23827;DHT22;12094;50.822;4.376;2023-12-28T07:22:58;10.40;99.90
23827;DHT22;12094;50.822;4.376;2023-12-28T07:25:25;10.40;99.90
23827;DHT22;12094;50.822;4.376;2023-12-28T07:30:28;10.40;99.90
23827;DHT22;12094;50.822;4.376;2023-12-28T07:32:57;10.40;99.90
23827;DHT22;12094;50.822;4.376;2023-12-28T07:35:24;10.40;99.90
23827;DHT22;12094;50.822;4.376;2023-12-28T07:37:52;10.30;99.90
23827;DHT22;12094;50.822;4.376;2023-12-28T07:40:19;10.40;99.90
23827;DHT22;12094;50.822;4.376;2023-12-28T07:42:47;10.40;99.90
23827;DHT22;12094;50.822;4.376;2023-12-28T07:45:15;10.40;99.90
23827;DHT22;12094;50.822;4.376;2023-12-28T07:47:44;10.40;99.90
23827;DHT22;12094;50.822;4.376;2023-12-28T07:50:11;10.40;99.90
23827;DHT22;12094;50.822;4.376;2023-12-28T07:52:39;10.50;99.90
23827;DHT22;12094;50.822;4.376;2023-12-28T07:55:06;10.40;99.90
23827;DHT22;12094;50.822;4.376;2023-12-28T07:57:34;10.40;99.90
23827;DHT22;12094;50.822;4.376;2023-12-28T08:00:03;10.40;99.90
23827;DHT22;12094;50.822;4.376;2023-12-28T08:02:30;10.40;99.90
23827;DHT22;12094;50.822;4.376;2023-12-28T08:04:57;10.40;99.90
23827;DHT22;12094;50.822;4.376;2023-12-28T08:07:24;10.40;99.90
23827;DHT22;12094;50.822;4.376;2023-12-28T08:09:51;10.40;99.90
23827;DHT22;12094;50.822;4.376;2023-12-28T08:12:19;10.40;99.90
23827;DHT22;12094;50.822;4.376;2023-12-28T08:14:49;10.40;99.90
23827;DHT22;12094;50.822;4.376;2023-12-28T08:17:16;10.40;99.90
23827;DHT22;12094;50.822;4.376;2023-12-28T08:19:44;10.40;99.90
23827;DHT22;12094;50.822;4.376;2023-12-28T08:22:11;10.50;99.90
23827;DHT22;12094;50.822;4.376;2023-12-28T08:24:38;10.50;99.90
23827;DHT22;12094;50.822;4.376;2023-12-28T08:27:06;10.50;99.90
23827;DHT22;12094;50.822;4.376;2023-12-28T08:29:33;10.50;99.90
23827;DHT22;12094;50.822;4.376;2023-12-28T08:32:01;10.50;99.90
23827;DHT22;12094;50.822;4.376;2023-12-28T08:34:31;10.50;99.90
23827;DHT22;12094;50.822;4.376;2023-12-28T08:37:00;10.50;99.90
23827;DHT22;12094;50.822;4.376;2023-12-28T08:39:29;10.50;99.90
23827;DHT22;12094;50.822;4.376;2023-12-28T08:41:56;10.50;99.90
23827;DHT22;12094;50.822;4.376;2023-12-28T08:44:24;10.60;99.90
23827;DHT22;12094;50.822;4.376;2023-12-28T08:46:51;10.60;99.90
23827;DHT22;12094;50.822;4.376;2023-12-28T08:49:20;10.70;99.90
23827;DHT22;12094;50.822;4.376;2023-12-28T08:51:55;10.70;99.90
23827;DHT22;12094;50.822;4.376;2023-12-28T08:54:22;10.70;99.90
23827;DHT22;12094;50.822;4.376;2023-12-28T08:56:50;10.70;99.90
23827;DHT22;12094;50.822;4.376;2023-12-28T08:59:21;10.60;99.90
23827;DHT22;12094;50.822;4.376;2023-12-28T09:01:54;10.70;99.90
23827;DHT22;12094;50.822;4.376;2023-12-28T09:04:22;10.60;99.90
23827;DHT22;12094;50.822;4.376;2023-12-28T09:09:20;10.60;99.90
23827;DHT22;12094;50.822;4.376;2023-12-28T09:14:19;10.60;99.90
23827;DHT22;12094;50.822;4.376;2023-12-28T09:16:46;10.60;99.90
23827;DHT22;12094;50.822;4.376;2023-12-28T09:19:16;10.60;99.90
23827;DHT22;12094;50.822;4.376;2023-12-28T09:21:45;10.60;99.90
23827;DHT22;12094;50.822;4.376;2023-12-28T09:24:13;10.60;99.90
23827;DHT22;12094;50.822;4.376;2023-12-28T09:26:46;10.60;99.90
23827;DHT22;12094;50.822;4.376;2023-12-28T09:32:08;10.60;99.90
23827;DHT22;12094;50.822;4.376;2023-12-28T09:34:39;10.60;99.90
23827;DHT22;12094;50.822;4.376;2023-12-28T09:37:08;10.70;99.90
23827;DHT22;12094;50.822;4.376;2023-12-28T09:39:37;10.70;99.90
23827;DHT22;12094;50.822;4.376;2023-12-28T09:42:06;10.80;99.90
23827;DHT22;12094;50.822;4.376;2023-12-28T09:44:38;10.80;99.90
23827;DHT22;12094;50.822;4.376;2023-12-28T09:50:02;10.80;99.90
23827;DHT22;12094;50.822;4.376;2023-12-28T09:52:29;10.90;99.90
23827;DHT22;12094;50.822;4.376;2023-12-28T09:54:55;11.00;99.90
23827;DHT22;12094;50.822;4.376;2023-12-28T09:57:23;11.00;99.90
23827;DHT22;12094;50.822;4.376;2023-12-28T09:59:50;11.00;99.90
23827;DHT22;12094;50.822;4.376;2023-12-28T10:02:17;11.00;99.90
23827;DHT22;12094;50.822;4.376;2023-12-28T10:04:48;11.00;99.90
23827;DHT22;12094;50.822;4.376;2023-12-28T10:07:15;11.00;99.90
23827;DHT22;12094;50.822;4.376;2023-12-28T10:09:45;11.00;99.90
23827;DHT22;12094;50.822;4.376;2023-12-28T10:12:13;11.10;99.90
23827;DHT22;12094;50.822;4.376;2023-12-28T10:14:41;11.10;99.90
23827;DHT22;12094;50.822;4.376;2023-12-28T10:17:08;11.10;99.90
23827;DHT22;12094;50.822;4.376;2023-12-28T10:19:38;11.10;99.90
23827;DHT22;12094;50.822;4.376;2023-12-28T10:22:05;11.10;99.90
23827;DHT22;12094;50.822;4.376;2023-12-28T10:24:34;11.10;99.90
23827;DHT22;12094;50.822;4.376;2023-12-28T10:27:03;11.30;99.90
23827;DHT22;12094;50.822;4.376;2023-12-28T10:29:30;11.40;99.90
23827;DHT22;12094;50.822;4.376;2023-12-28T10:31:57;11.50;99.90
23827;DHT22;12094;50.822;4.376;2023-12-28T10:34:25;11.40;99.90
23827;DHT22;12094;50.822;4.376;2023-12-28T10:36:53;11.40;99.90
23827;DHT22;12094;50.822;4.376;2023-12-28T10:39:23;11.40;99.90
23827;DHT22;12094;50.822;4.376;2023-12-28T10:41:51;11.50;99.90
23827;DHT22;12094;50.822;4.376;2023-12-28T10:44:22;11.50;99.90
23827;DHT22;12094;50.822;4.376;2023-12-28T10:46:54;11.60;99.90
23827;DHT22;12094;50.822;4.376;2023-12-28T10:49:26;11.70;99.90
23827;DHT22;12094;50.822;4.376;2023-12-28T10:52:01;11.50;99.90
23827;DHT22;12094;50.822;4.376;2023-12-28T10:54:38;11.60;99.90
23827;DHT22;12094;50.822;4.376;2023-12-28T10:57:16;11.50;99.90
23827;DHT22;12094;50.822;4.376;2023-12-28T11:02:23;11.70;99.90
23827;DHT22;12094;50.822;4.376;2023-12-28T11:05:00;11.70;99.90
23827;DHT22;12094;50.822;4.376;2023-12-28T11:07:33;11.60;99.90
23827;DHT22;12094;50.822;4.376;2023-12-28T11:10:06;11.60;99.90
23827;DHT22;12094;50.822;4.376;2023-12-28T11:12:35;11.50;99.90
23827;DHT22;12094;50.822;4.376;2023-12-28T11:15:02;11.50;99.90
23827;DHT22;12094;50.822;4.376;2023-12-28T11:17:36;11.60;99.90
23827;DHT22;12094;50.822;4.376;2023-12-28T11:20:08;11.70;99.90
23827;DHT22;12094;50.822;4.376;2023-12-28T11:22:39;11.80;99.90
23827;DHT22;12094;50.822;4.376;2023-12-28T11:25:07;11.90;99.90
23827;DHT22;12094;50.822;4.376;2023-12-28T11:27:41;11.80;99.90
23827;DHT22;12094;50.822;4.376;2023-12-28T11:30:27;11.70;99.90
23827;DHT22;12094;50.822;4.376;2023-12-28T11:32:58;11.60;99.90
23827;DHT22;12094;50.822;4.376;2023-12-28T11:35:33;11.60;99.90
23827;DHT22;12094;50.822;4.376;2023-12-28T11:38:00;11.70;99.90
23827;DHT22;12094;50.822;4.376;2023-12-28T11:40:31;11.80;99.90
23827;DHT22;12094;50.822;4.376;2023-12-28T11:43:19;11.80;99.90
23827;DHT22;12094;50.822;4.376;2023-12-28T11:45:56;11.80;99.90
23827;DHT22;12094;50.822;4.376;2023-12-28T11:50:55;11.80;99.90
23827;DHT22;12094;50.822;4.376;2023-12-28T11:53:25;12.00;99.90
23827;DHT22;12094;50.822;4.376;2023-12-28T11:55:52;11.90;99.90
23827;DHT22;12094;50.822;4.376;2023-12-28T11:58:26;11.90;99.90
23827;DHT22;12094;50.822;4.376;2023-12-28T12:00:53;11.90;99.90
23827;DHT22;12094;50.822;4.376;2023-12-28T12:03:21;12.00;99.90
23827;DHT22;12094;50.822;4.376;2023-12-28T12:08:41;11.90;99.90
23827;DHT22;12094;50.822;4.376;2023-12-28T12:14:27;11.90;99.90
23827;DHT22;12094;50.822;4.376;2023-12-28T12:16:55;12.00;99.90
23827;DHT22;12094;50.822;4.376;2023-12-28T12:19:29;11.90;99.90
23827;DHT22;12094;50.822;4.376;2023-12-28T12:21:58;11.90;99.90
23827;DHT22;12094;50.822;4.376;2023-12-28T12:24:27;11.90;99.90
23827;DHT22;12094;50.822;4.376;2023-12-28T12:26:55;11.90;99.90
23827;DHT22;12094;50.822;4.376;2023-12-28T12:29:23;11.90;99.90
23827;DHT22;12094;50.822;4.376;2023-12-28T12:31:55;11.90;99.90
23827;DHT22;12094;50.822;4.376;2023-12-28T12:34:23;11.90;99.90
23827;DHT22;12094;50.822;4.376;2023-12-28T12:36:51;11.80;99.90
23827;DHT22;12094;50.822;4.376;2023-12-28T12:39:23;11.90;99.90
23827;DHT22;12094;50.822;4.376;2023-12-28T12:41:52;11.80;99.90
23827;DHT22;12094;50.822;4.376;2023-12-28T12:44:19;11.70;99.90
23827;DHT22;12094;50.822;4.376;2023-12-28T12:46:46;11.80;99.90
23827;DHT22;12094;50.822;4.376;2023-12-28T12:51:44;11.70;99.90
23827;DHT22;12094;50.822;4.376;2023-12-28T12:54:12;11.70;99.90
23827;DHT22;12094;50.822;4.376;2023-12-28T12:56:39;11.60;99.90
23827;DHT22;12094;50.822;4.376;2023-12-28T12:59:12;11.60;99.90
23827;DHT22;12094;50.822;4.376;2023-12-28T13:01:44;11.70;99.90
23827;DHT22;12094;50.822;4.376;2023-12-28T13:04:16;11.60;99.90
23827;DHT22;12094;50.822;4.376;2023-12-28T13:06:45;11.60;99.90
23827;DHT22;12094;50.822;4.376;2023-12-28T13:09:16;11.60;99.90
23827;DHT22;12094;50.822;4.376;2023-12-28T13:11:43;11.50;99.90
23827;DHT22;12094;50.822;4.376;2023-12-28T13:14:11;11.60;99.90
23827;DHT22;12094;50.822;4.376;2023-12-28T13:16:38;11.60;99.90
23827;DHT22;12094;50.822;4.376;2023-12-28T13:19:08;11.60;99.90
23827;DHT22;12094;50.822;4.376;2023-12-28T13:21:35;11.50;99.90
23827;DHT22;12094;50.822;4.376;2023-12-28T13:24:07;11.50;99.90
23827;DHT22;12094;50.822;4.376;2023-12-28T13:26:37;11.60;99.90
23827;DHT22;12094;50.822;4.376;2023-12-28T13:29:05;11.60;99.90
23827;DHT22;12094;50.822;4.376;2023-12-28T13:31:35;11.60;99.90
23827;DHT22;12094;50.822;4.376;2023-12-28T13:34:05;11.50;99.90
23827;DHT22;12094;50.822;4.376;2023-12-28T13:36:33;11.60;99.90
23827;DHT22;12094;50.822;4.376;2023-12-28T13:39:02;11.60;99.90
23827;DHT22;12094;50.822;4.376;2023-12-28T13:41:30;11.70;99.90
23827;DHT22;12094;50.822;4.376;2023-12-28T13:43:59;11.70;99.90
23827;DHT22;12094;50.822;4.376;2023-12-28T13:46:32;11.70;99.90
23827;DHT22;12094;50.822;4.376;2023-12-28T13:49:03;11.70;99.90
23827;DHT22;12094;50.822;4.376;2023-12-28T13:51:33;11.60;99.90
23827;DHT22;12094;50.822;4.376;2023-12-28T13:54:01;11.70;99.90
23827;DHT22;12094;50.822;4.376;2023-12-28T13:56:34;11.70;99.90
23827;DHT22;12094;50.822;4.376;2023-12-28T13:59:07;11.70;99.90
23827;DHT22;12094;50.822;4.376;2023-12-28T14:01:36;11.80;99.90
23827;DHT22;12094;50.822;4.376;2023-12-28T14:04:08;11.90;99.90
23827;DHT22;12094;50.822;4.376;2023-12-28T14:06:39;11.80;99.90
23827;DHT22;12094;50.822;4.376;2023-12-28T14:09:09;11.80;99.90
23827;DHT22;12094;50.822;4.376;2023-12-28T14:11:37;11.70;99.90
23827;DHT22;12094;50.822;4.376;2023-12-28T14:14:07;11.70;99.90
23827;DHT22;12094;50.822;4.376;2023-12-28T14:16:34;11.60;99.90
23827;DHT22;12094;50.822;4.376;2023-12-28T14:19:03;11.70;99.90
23827;DHT22;12094;50.822;4.376;2023-12-28T14:21:37;11.70;99.90
23827;DHT22;12094;50.822;4.376;2023-12-28T14:24:07;11.70;99.90
23827;DHT22;12094;50.822;4.376;2023-12-28T14:26:41;11.70;99.90
23827;DHT22;12094;50.822;4.376;2023-12-28T14:29:10;11.70;99.90
23827;DHT22;12094;50.822;4.376;2023-12-28T14:31:39;11.60;99.90
23827;DHT22;12094;50.822;4.376;2023-12-28T14:34:07;11.60;99.90
23827;DHT22;12094;50.822;4.376;2023-12-28T14:36:37;11.70;99.90
23827;DHT22;12094;50.822;4.376;2023-12-28T14:39:06;11.60;99.90
23827;DHT22;12094;50.822;4.376;2023-12-28T14:41:37;11.50;99.90
23827;DHT22;12094;50.822;4.376;2023-12-28T14:44:09;11.60;99.90
23827;DHT22;12094;50.822;4.376;2023-12-28T14:46:37;11.60;99.90
23827;DHT22;12094;50.822;4.376;2023-12-28T14:49:04;11.50;99.90
23827;DHT22;12094;50.822;4.376;2023-12-28T14:54:25;11.50;99.90
23827;DHT22;12094;50.822;4.376;2023-12-28T14:56:53;11.40;99.90
23827;DHT22;12094;50.822;4.376;2023-12-28T14:59:22;11.50;99.90
23827;DHT22;12094;50.822;4.376;2023-12-28T15:01:50;11.40;99.90
23827;DHT22;12094;50.822;4.376;2023-12-28T15:04:18;11.40;99.90
23827;DHT22;12094;50.822;4.376;2023-12-28T15:06:52;11.40;99.90
23827;DHT22;12094;50.822;4.376;2023-12-28T15:09:19;11.40;99.90
23827;DHT22;12094;50.822;4.376;2023-12-28T15:11:47;11.40;99.90
23827;DHT22;12094;50.822;4.376;2023-12-28T15:14:15;11.30;99.90
23827;DHT22;12094;50.822;4.376;2023-12-28T15:16:45;11.30;99.90
23827;DHT22;12094;50.822;4.376;2023-12-28T15:19:13;11.30;99.90
23827;DHT22;12094;50.822;4.376;2023-12-28T15:21:44;11.30;99.90
23827;DHT22;12094;50.822;4.376;2023-12-28T15:24:13;11.30;99.90
23827;DHT22;12094;50.822;4.376;2023-12-28T15:26:41;11.30;99.90
23827;DHT22;12094;50.822;4.376;2023-12-28T15:29:08;11.30;99.90
23827;DHT22;12094;50.822;4.376;2023-12-28T15:31:36;11.30;99.90
23827;DHT22;12094;50.822;4.376;2023-12-28T15:34:05;11.30;99.90
23827;DHT22;12094;50.822;4.376;2023-12-28T15:36:33;11.20;99.90
23827;DHT22;12094;50.822;4.376;2023-12-28T15:39:00;11.20;99.90
23827;DHT22;12094;50.822;4.376;2023-12-28T15:41:34;11.20;99.90
23827;DHT22;12094;50.822;4.376;2023-12-28T15:44:01;11.20;99.90
23827;DHT22;12094;50.822;4.376;2023-12-28T15:46:29;11.20;99.90
23827;DHT22;12094;50.822;4.376;2023-12-28T15:48:57;11.20;99.90
23827;DHT22;12094;50.822;4.376;2023-12-28T15:51:25;11.20;99.90
23827;DHT22;12094;50.822;4.376;2023-12-28T15:53:52;11.20;99.90
23827;DHT22;12094;50.822;4.376;2023-12-28T15:56:19;11.10;99.90
23827;DHT22;12094;50.822;4.376;2023-12-28T15:58:47;11.10;99.90
23827;DHT22;12094;50.822;4.376;2023-12-28T16:01:16;11.10;99.90
23827;DHT22;12094;50.822;4.376;2023-12-28T16:03:46;11.10;99.90
23827;DHT22;12094;50.822;4.376;2023-12-28T16:06:15;11.10;99.90
23827;DHT22;12094;50.822;4.376;2023-12-28T16:08:42;11.10;99.90
23827;DHT22;12094;50.822;4.376;2023-12-28T16:11:12;11.10;99.90
23827;DHT22;12094;50.822;4.376;2023-12-28T16:13:45;11.10;99.90
23827;DHT22;12094;50.822;4.376;2023-12-28T16:16:12;11.10;99.90
23827;DHT22;12094;50.822;4.376;2023-12-28T16:18:40;11.10;99.90
23827;DHT22;12094;50.822;4.376;2023-12-28T16:21:08;11.10;99.90
23827;DHT22;12094;50.822;4.376;2023-12-28T16:26:09;11.00;99.90
23827;DHT22;12094;50.822;4.376;2023-12-28T16:28:40;11.00;99.90
23827;DHT22;12094;50.822;4.376;2023-12-28T16:31:07;11.10;99.90
23827;DHT22;12094;50.822;4.376;2023-12-28T16:36:14;11.00;99.90
23827;DHT22;12094;50.822;4.376;2023-12-28T16:41:30;11.10;99.90
23827;DHT22;12094;50.822;4.376;2023-12-28T16:44:00;11.10;99.90
23827;DHT22;12094;50.822;4.376;2023-12-28T16:46:28;11.10;99.90
23827;DHT22;12094;50.822;4.376;2023-12-28T16:48:57;11.10;99.90
23827;DHT22;12094;50.822;4.376;2023-12-28T16:51:27;11.10;99.90
23827;DHT22;12094;50.822;4.376;2023-12-28T16:53:55;11.10;99.90
23827;DHT22;12094;50.822;4.376;2023-12-28T16:56:26;11.10;99.90
23827;DHT22;12094;50.822;4.376;2023-12-28T16:58:55;11.10;99.90
23827;DHT22;12094;50.822;4.376;2023-12-28T17:01:25;11.10;99.90
23827;DHT22;12094;50.822;4.376;2023-12-28T17:06:26;11.10;99.90
23827;DHT22;12094;50.822;4.376;2023-12-28T17:08:54;11.10;99.90
23827;DHT22;12094;50.822;4.376;2023-12-28T17:11:24;11.10;99.90
23827;DHT22;12094;50.822;4.376;2023-12-28T17:13:51;11.10;99.90
23827;DHT22;12094;50.822;4.376;2023-12-28T17:16:25;11.10;99.90